Anzac, Canada
Current Conditions -  °F | °C
As of 4:00 PM on Friday 19 Dec 2014 (Local Time) from CYMM Reporting Station
Broken Clouds Broken Clouds  
Wind Chill:   Ceiling: 24000
Heat Index: 14°   Visibility: 9mi
Dew Point: 14°   Wind: 10mph
Humidity: 100%   Direction: 90°E
Pressure: 29.77"   Gusts: NA
Location:  56.44°N, 111.06°W
Report Text: CYMM 192300Z AUTO 09009KT 9SM BKN240 M10/M10 A2977 RMK SLP113
Loading
Personal Weather Stations






























Interactive Weather Map New forecast layout! Learn more

10-Day Weather Forecast

Advertisements
Track Severe Weather on mobile